createdAt,value
2019-05-23T00:02:42.358Z,1.92
2019-05-23T00:05:33.708Z,2.00
2019-05-23T00:08:24.763Z,2.22
2019-05-23T00:10:58.165Z,2.08
2019-05-23T00:13:49.143Z,2.15
2019-05-23T00:16:25.495Z,2.20
2019-05-23T00:18:58.812Z,2.20
2019-05-23T00:21:32.360Z,2.10
2019-05-23T00:24:05.741Z,1.92
2019-05-23T00:26:39.089Z,2.10
2019-05-23T00:29:12.454Z,2.20
2019-05-23T00:31:45.858Z,2.10
2019-05-23T00:34:19.610Z,2.17
2019-05-23T00:36:52.932Z,2.20
2019-05-23T00:39:26.279Z,2.00
2019-05-23T00:41:59.618Z,2.00
2019-05-23T00:44:33.015Z,2.50
2019-05-23T00:47:06.357Z,2.10
2019-05-23T00:49:39.699Z,2.08
2019-05-23T00:52:13.001Z,2.33
2019-05-23T00:54:46.360Z,1.90
2019-05-23T00:57:19.678Z,2.20
2019-05-23T00:59:53.073Z,2.08
2019-05-23T01:02:26.368Z,1.98
2019-05-23T01:04:59.738Z,2.10
2019-05-23T01:07:33.321Z,1.98
2019-05-23T01:10:06.939Z,1.90
2019-05-23T01:12:41.309Z,2.00
2019-05-23T01:15:15.206Z,2.10
2019-05-23T01:17:49.429Z,1.95
2019-05-23T01:20:22.752Z,2.10
2019-05-23T01:22:56.228Z,2.30
2019-05-23T01:25:29.791Z,2.45
2019-05-23T01:28:03.096Z,2.05
2019-05-23T01:30:36.278Z,2.30
2019-05-23T01:33:09.586Z,2.22
2019-05-23T01:35:42.955Z,2.00
2019-05-23T01:38:16.263Z,2.05
2019-05-23T01:40:49.974Z,2.05
2019-05-23T01:43:23.307Z,2.50
2019-05-23T01:45:56.815Z,2.30
2019-05-23T01:48:30.185Z,2.00
2019-05-23T01:51:03.537Z,2.75
2019-05-23T01:53:36.858Z,2.15
2019-05-23T01:56:10.234Z,2.90
2019-05-23T01:58:43.549Z,2.27
2019-05-23T02:01:16.753Z,2.67
2019-05-23T02:03:50.063Z,2.00
2019-05-23T02:06:23.401Z,2.25
2019-05-23T02:08:56.721Z,2.12
2019-05-23T02:11:30.072Z,2.50
2019-05-23T02:14:03.946Z,2.00
2019-05-23T02:16:37.302Z,2.33
2019-05-23T02:19:13.672Z,2.55
2019-05-23T02:21:45.625Z,2.40
2019-05-23T02:24:18.919Z,3.10
2019-05-23T02:26:52.254Z,2.55
2019-05-23T02:29:25.561Z,2.50
2019-05-23T02:31:58.920Z,2.55
2019-05-23T02:34:32.224Z,2.55
2019-05-23T02:37:05.649Z,2.60
2019-05-23T02:39:38.929Z,2.58
2019-05-23T02:42:12.310Z,2.37
2019-05-23T02:44:45.895Z,2.52
2019-05-23T02:47:20.257Z,3.02
2019-05-23T02:49:53.551Z,2.90
2019-05-23T02:52:42.120Z,3.37
2019-05-23T02:55:21.859Z,2.77
2019-05-23T02:57:57.144Z,2.77
2019-05-23T03:00:54.439Z,3.52
2019-05-23T03:03:24.150Z,3.10
2019-05-23T03:05:57.552Z,3.55
2019-05-23T03:08:30.858Z,2.87
2019-05-23T03:11:12.991Z,2.62
2019-05-23T03:13:46.413Z,2.98
2019-05-23T03:16:21.406Z,3.15
2019-05-23T03:18:58.126Z,2.77
2019-05-23T03:21:31.540Z,3.10
2019-05-23T03:24:04.897Z,2.75
2019-05-23T03:26:50.490Z,3.35
2019-05-23T03:29:23.801Z,4.00
2019-05-23T03:31:57.377Z,3.00
2019-05-23T03:34:30.730Z,2.75
2019-05-23T03:37:04.017Z,3.02
2019-05-23T03:39:37.893Z,3.60
2019-05-23T03:42:11.212Z,3.12
2019-05-23T03:44:45.305Z,3.17
2019-05-23T03:47:18.691Z,3.12
2019-05-23T03:49:52.003Z,3.72
2019-05-23T03:52:25.986Z,3.27
2019-05-23T03:54:59.328Z,3.35
2019-05-23T03:57:32.633Z,3.37
2019-05-23T04:00:10.751Z,4.37
2019-05-23T04:02:44.073Z,3.50
2019-05-23T04:05:17.404Z,4.42
2019-05-23T04:07:50.704Z,4.05
2019-05-23T04:10:24.044Z,3.33
2019-05-23T04:12:57.338Z,3.80
2019-05-23T04:15:30.667Z,3.47
2019-05-23T04:18:03.977Z,3.37
2019-05-23T04:20:38.263Z,4.58
2019-05-23T04:23:11.594Z,4.08
2019-05-23T04:25:44.939Z,3.62
2019-05-23T04:28:18.321Z,3.83
2019-05-23T04:30:51.669Z,3.95
2019-05-23T04:33:24.968Z,4.40
2019-05-23T04:35:58.317Z,4.10
2019-05-23T04:38:35.879Z,3.55
2019-05-23T04:41:06.631Z,4.10
2019-05-23T04:43:40.998Z,4.12
2019-05-23T04:46:14.350Z,4.00
2019-05-23T04:48:47.697Z,4.62
2019-05-23T04:51:21.045Z,5.10
2019-05-23T04:53:54.413Z,4.53
2019-05-23T04:56:27.758Z,4.42
2019-05-23T04:59:01.831Z,4.35
2019-05-23T05:01:35.198Z,4.55
2019-05-23T05:04:08.339Z,4.53
2019-05-23T05:06:41.678Z,6.03
2019-05-23T05:09:14.811Z,5.15
2019-05-23T05:11:48.202Z,4.45
2019-05-23T05:14:21.539Z,4.95
2019-05-23T05:16:54.872Z,6.37
2019-05-23T05:19:28.213Z,4.90
2019-05-23T05:22:01.559Z,6.47
2019-05-23T05:24:34.936Z,4.72
2019-05-23T05:27:08.323Z,4.83
2019-05-23T05:29:41.636Z,4.65
2019-05-23T05:32:15.016Z,5.12
2019-05-23T05:34:48.368Z,5.60
2019-05-23T05:37:21.842Z,5.33
2019-05-23T05:39:55.019Z,5.08
2019-05-23T05:42:28.703Z,5.17
2019-05-23T05:45:02.046Z,6.33
2019-05-23T05:47:35.496Z,5.67
2019-05-23T05:50:09.265Z,4.97
2019-05-23T05:52:43.766Z,5.62
2019-05-23T05:55:17.055Z,4.97
2019-05-23T05:57:50.409Z,4.80
2019-05-23T06:00:23.993Z,5.05
2019-05-23T06:03:04.614Z,5.05
2019-05-23T06:05:33.731Z,5.97
2019-05-23T06:08:07.200Z,6.05
2019-05-23T06:10:40.572Z,5.58
2019-05-23T06:13:13.923Z,6.22
2019-05-23T06:15:48.518Z,7.03
2019-05-23T06:18:21.902Z,5.28
2019-05-23T06:20:55.241Z,5.77
2019-05-23T06:23:29.077Z,7.97
2019-05-23T06:26:02.404Z,6.90
2019-05-23T06:28:35.841Z,7.25
2019-05-23T06:31:09.457Z,8.33
2019-05-23T06:33:42.800Z,7.22
2019-05-23T06:36:16.123Z,7.80
2019-05-23T06:38:49.685Z,6.35
2019-05-23T06:41:23.432Z,5.83
2019-05-23T06:43:56.919Z,6.08
2019-05-23T06:46:30.247Z,6.28
2019-05-23T06:49:03.744Z,6.55
2019-05-23T06:51:37.060Z,6.45
2019-05-23T06:54:10.400Z,5.85
2019-05-23T06:56:44.950Z,7.12
2019-05-23T06:59:18.447Z,7.08
2019-05-23T07:01:51.743Z,5.60
2019-05-23T07:04:25.109Z,6.60
2019-05-23T07:06:59.969Z,5.90
2019-05-23T07:09:33.294Z,6.30
2019-05-23T07:12:08.263Z,5.37
2019-05-23T07:14:41.600Z,4.80
2019-05-23T07:17:15.281Z,5.45
2019-05-23T07:19:48.599Z,4.78
2019-05-23T07:22:21.952Z,4.72
2019-05-23T07:24:58.607Z,4.85
2019-05-23T07:27:30.306Z,4.40
2019-05-23T07:30:21.485Z,4.10
2019-05-23T07:32:54.792Z,4.20
2019-05-23T07:35:28.126Z,4.45
2019-05-23T07:38:03.752Z,4.03
2019-05-23T07:40:38.168Z,4.50
2019-05-23T07:43:11.482Z,3.40
2019-05-23T07:45:44.812Z,3.95
2019-05-23T07:48:18.212Z,3.95
2019-05-23T07:50:51.631Z,5.03
2019-05-23T07:53:24.938Z,3.90
2019-05-23T07:55:58.322Z,3.87
2019-05-23T07:58:31.640Z,3.22
2019-05-23T08:01:05.322Z,3.33
2019-05-23T08:03:38.533Z,4.10
2019-05-23T08:06:11.910Z,3.20
2019-05-23T08:08:47.291Z,3.83
2019-05-23T08:11:20.635Z,2.80
2019-05-23T08:13:54.238Z,3.33
2019-05-23T08:16:27.671Z,2.90
2019-05-23T08:19:02.041Z,3.00
2019-05-23T08:21:35.377Z,2.72
2019-05-23T08:24:08.682Z,4.12
2019-05-23T08:26:42.118Z,3.95
2019-05-23T08:29:25.890Z,3.52
2019-05-23T08:31:50.636Z,4.62
2019-05-23T08:34:39.916Z,3.62
2019-05-23T08:36:59.155Z,3.47
2019-05-23T08:39:32.490Z,3.17
2019-05-23T08:42:05.873Z,2.83
2019-05-23T08:44:39.155Z,2.50
2019-05-23T08:47:12.505Z,3.02
2019-05-23T08:49:45.849Z,2.80
2019-05-23T08:52:19.201Z,2.92
2019-05-23T08:54:56.169Z,2.20
2019-05-23T08:57:31.275Z,2.85
2019-05-23T09:00:06.123Z,3.10
2019-05-23T09:02:41.073Z,2.92
2019-05-23T09:05:14.484Z,2.80
2019-05-23T09:07:47.803Z,2.90
2019-05-23T09:10:21.277Z,2.62
2019-05-23T09:12:54.576Z,2.40
2019-05-23T09:15:27.970Z,3.10
2019-05-23T09:18:01.336Z,2.70
2019-05-23T09:20:34.628Z,3.52
2019-05-23T09:23:08.096Z,4.60
2019-05-23T09:25:41.512Z,3.77
2019-05-23T09:28:14.854Z,4.50
2019-05-23T09:30:48.257Z,4.08
2019-05-23T09:33:21.553Z,4.60
2019-05-23T09:35:54.912Z,4.67
2019-05-23T09:38:28.216Z,4.90
2019-05-23T09:41:01.584Z,5.30
2019-05-23T09:43:34.923Z,4.90
2019-05-23T09:46:08.493Z,4.55
2019-05-23T09:48:42.006Z,4.05
2019-05-23T09:51:15.406Z,3.80
2019-05-23T09:53:49.215Z,3.40
2019-05-23T09:56:22.340Z,3.50
2019-05-23T09:58:55.651Z,2.70
2019-05-23T10:01:29.043Z,2.83
2019-05-23T10:04:02.363Z,2.50
2019-05-23T10:06:35.660Z,2.30
2019-05-23T10:09:09.000Z,2.20
2019-05-23T10:11:42.526Z,2.25
2019-05-23T10:14:16.074Z,2.17
2019-05-23T10:16:49.391Z,1.90
2019-05-23T10:19:22.755Z,1.67
2019-05-23T10:21:55.870Z,1.72
2019-05-23T10:24:29.212Z,1.90
2019-05-23T10:27:02.526Z,1.57
2019-05-23T10:29:35.859Z,1.75
2019-05-23T10:32:09.196Z,1.80
2019-05-23T10:34:42.569Z,1.30
2019-05-23T10:37:15.941Z,2.00
2019-05-23T10:39:51.844Z,1.80
2019-05-23T10:42:25.159Z,1.60
2019-05-23T10:44:58.518Z,1.62
2019-05-23T10:47:32.142Z,1.50
2019-05-23T10:50:08.980Z,1.42
2019-05-23T10:52:41.515Z,1.30
2019-05-23T10:55:14.909Z,1.20
2019-05-23T10:57:48.999Z,1.65
2019-05-23T11:00:23.944Z,1.07
2019-05-23T11:02:58.905Z,1.30
2019-05-23T11:05:32.208Z,1.10
2019-05-23T11:08:05.535Z,1.32
2019-05-23T11:10:38.910Z,1.10
2019-05-23T11:13:12.224Z,1.00
2019-05-23T11:15:45.535Z,1.25
2019-05-23T11:18:18.928Z,1.22
2019-05-23T11:20:52.271Z,1.07
2019-05-23T11:23:25.591Z,1.00
2019-05-23T11:26:01.399Z,1.37
2019-05-23T11:28:35.246Z,1.30
2019-05-23T11:31:08.555Z,0.95
2019-05-23T11:33:41.882Z,0.98
2019-05-23T11:36:31.796Z,0.98
2019-05-23T11:38:51.719Z,1.40
2019-05-23T11:41:25.145Z,1.07
2019-05-23T11:43:58.415Z,0.90
2019-05-23T11:46:31.743Z,0.90
2019-05-23T11:49:05.212Z,1.00
2019-05-23T11:51:38.536Z,1.10
2019-05-23T11:54:12.058Z,0.90
2019-05-23T11:56:45.392Z,1.00
2019-05-23T11:59:18.878Z,0.90
2019-05-23T12:01:52.289Z,0.80
2019-05-23T12:04:25.625Z,0.70
2019-05-23T12:06:58.964Z,1.30
2019-05-23T12:09:32.259Z,0.75
2019-05-23T12:12:05.605Z,0.82
2019-05-23T12:14:39.557Z,0.80
2019-05-23T12:17:12.900Z,0.85
2019-05-23T12:19:46.170Z,0.98
2019-05-23T12:22:19.623Z,0.80
2019-05-23T12:24:52.899Z,0.70
2019-05-23T12:27:26.402Z,0.90
2019-05-23T12:29:59.790Z,0.65
2019-05-23T12:32:33.141Z,0.68
2019-05-23T12:35:10.884Z,0.70
2019-05-23T12:37:41.495Z,0.65
2019-05-23T12:40:14.829Z,0.93
2019-05-23T12:42:48.170Z,0.70
2019-05-23T12:45:21.845Z,0.62
2019-05-23T12:47:55.231Z,0.78
2019-05-23T12:50:28.579Z,1.10
2019-05-23T12:53:01.936Z,0.68
2019-05-23T12:55:35.273Z,0.80
2019-05-23T12:58:08.608Z,0.90
2019-05-23T13:00:41.800Z,0.60
2019-05-23T13:03:15.197Z,0.80
2019-05-23T13:05:48.512Z,0.78
2019-05-23T13:08:21.928Z,1.02
2019-05-23T13:10:55.237Z,0.72
2019-05-23T13:13:28.576Z,0.60
2019-05-23T13:16:01.973Z,0.78
2019-05-23T13:18:35.308Z,0.88
2019-05-23T13:21:08.631Z,0.70
2019-05-23T13:23:42.050Z,1.40
2019-05-23T13:26:15.561Z,2.08
2019-05-23T13:28:48.890Z,2.77
2019-05-23T13:31:22.227Z,1.62
2019-05-23T13:33:55.530Z,1.62
2019-05-23T13:36:28.954Z,1.80
2019-05-23T13:39:02.376Z,1.37
2019-05-23T13:41:37.069Z,1.77
2019-05-23T13:44:10.424Z,2.20
2019-05-23T13:46:43.775Z,3.50
2019-05-23T13:49:17.102Z,1.92
2019-05-23T13:51:50.578Z,1.82
2019-05-23T13:54:24.029Z,2.15
2019-05-23T13:56:57.939Z,2.20
2019-05-23T13:59:31.476Z,3.15
2019-05-23T14:02:04.841Z,1.80
2019-05-23T14:04:38.207Z,1.72
2019-05-23T14:07:11.599Z,1.32
2019-05-23T14:09:45.149Z,1.80
2019-05-23T14:12:21.411Z,1.95
2019-05-23T14:14:53.661Z,1.25
2019-05-23T14:17:27.210Z,1.32
2019-05-23T14:20:00.581Z,1.60
2019-05-23T14:22:34.200Z,1.52
2019-05-23T14:25:07.561Z,2.37
2019-05-23T14:27:40.960Z,1.72
2019-05-23T14:30:15.283Z,1.40
2019-05-23T14:32:49.022Z,1.60
2019-05-23T14:35:22.360Z,1.42
2019-05-23T14:37:55.993Z,1.25
2019-05-23T14:40:29.309Z,1.05
2019-05-23T14:43:02.678Z,1.07
2019-05-23T14:45:36.081Z,1.02
2019-05-23T14:48:12.270Z,0.85
2019-05-23T14:50:44.457Z,1.15
2019-05-23T14:53:17.796Z,0.70
2019-05-23T14:55:51.143Z,0.60
2019-05-23T14:58:24.490Z,0.80
2019-05-23T15:00:57.813Z,0.80
2019-05-23T15:03:35.258Z,0.88
2019-05-23T15:06:06.441Z,1.27
2019-05-23T15:08:50.365Z,1.00
2019-05-23T15:11:15.075Z,0.93
2019-05-23T15:13:48.495Z,1.10
2019-05-23T15:16:21.981Z,1.42
2019-05-23T15:18:55.541Z,1.75
2019-05-23T15:21:28.945Z,2.85
2019-05-23T15:24:02.780Z,3.47
2019-05-23T15:26:36.100Z,2.98
2019-05-23T15:29:11.160Z,3.33
2019-05-23T15:32:00.602Z,3.58
2019-05-23T15:34:19.542Z,2.87
2019-05-23T15:36:52.886Z,2.80
2019-05-23T15:39:26.511Z,2.90
2019-05-23T15:41:59.827Z,2.90
2019-05-23T15:44:33.455Z,2.85
2019-05-23T15:47:06.944Z,2.50
2019-05-23T15:49:40.270Z,2.67
2019-05-23T15:52:13.640Z,2.67
2019-05-23T15:54:47.655Z,2.60
2019-05-23T15:57:21.482Z,2.47
2019-05-23T15:59:54.945Z,2.05
2019-05-23T16:02:28.328Z,2.22
2019-05-23T16:05:01.626Z,2.62
2019-05-23T16:07:35.033Z,2.77
2019-05-23T16:10:08.370Z,2.02
2019-05-23T16:12:41.757Z,1.80
2019-05-23T16:15:15.084Z,4.45
2019-05-23T16:17:48.439Z,5.37
2019-05-23T16:20:21.786Z,3.77
2019-05-23T16:22:55.359Z,3.87
2019-05-23T16:25:28.628Z,3.17
2019-05-23T16:28:02.222Z,2.75
2019-05-23T16:30:35.695Z,2.90
2019-05-23T16:33:09.126Z,3.35
2019-05-23T16:35:44.151Z,2.27
2019-05-23T16:38:17.466Z,2.33
2019-05-23T16:40:50.845Z,2.47
2019-05-23T16:43:24.210Z,2.35
2019-05-23T16:45:59.198Z,2.62
2019-05-23T16:48:33.050Z,2.20
2019-05-23T16:51:06.960Z,1.92
2019-05-23T16:53:40.282Z,2.10
2019-05-23T16:56:13.651Z,1.95
2019-05-23T16:58:47.038Z,2.15
2019-05-23T17:01:24.525Z,2.50
2019-05-23T17:03:57.780Z,2.12
2019-05-23T17:06:30.423Z,3.50
2019-05-23T17:09:05.280Z,2.35
2019-05-23T17:11:38.747Z,2.10
2019-05-23T17:14:12.095Z,1.85
2019-05-23T17:16:45.403Z,2.05
2019-05-23T17:19:18.691Z,1.90
2019-05-23T17:21:52.328Z,2.37
2019-05-23T17:24:25.708Z,2.20
2019-05-23T17:26:59.002Z,1.90
2019-05-23T17:29:32.353Z,1.80
2019-05-23T17:32:05.939Z,2.22
2019-05-23T17:34:40.340Z,2.27
2019-05-23T17:37:13.652Z,2.30
2019-05-23T17:39:47.283Z,2.05
2019-05-23T17:42:22.109Z,2.10
2019-05-23T17:44:55.441Z,2.25
2019-05-23T17:47:28.866Z,2.05
2019-05-23T17:50:03.507Z,2.60
2019-05-23T17:52:37.128Z,2.25
2019-05-23T17:55:10.510Z,1.98
2019-05-23T17:57:43.872Z,1.85
2019-05-23T18:00:17.462Z,1.80
2019-05-23T18:02:50.802Z,1.70
2019-05-23T18:05:24.171Z,1.60
2019-05-23T18:07:57.542Z,2.02
2019-05-23T18:10:43.835Z,1.55
2019-05-23T18:13:05.917Z,1.95
2019-05-23T18:15:39.309Z,1.82
2019-05-23T18:18:12.665Z,1.67
2019-05-23T18:20:45.998Z,1.82
2019-05-23T18:23:19.327Z,1.90
2019-05-23T18:25:53.220Z,2.00
2019-05-23T18:28:27.419Z,2.70
2019-05-23T18:31:06.001Z,2.37
2019-05-23T18:33:37.505Z,2.22
2019-05-23T18:36:11.157Z,2.50
2019-05-23T18:38:45.135Z,2.70
2019-05-23T18:41:18.467Z,2.33
2019-05-23T18:43:51.818Z,2.83
2019-05-23T18:46:25.006Z,2.25
2019-05-23T18:48:58.433Z,2.33
2019-05-23T18:51:32.045Z,1.92
2019-05-23T18:54:05.548Z,2.33
2019-05-23T18:56:39.115Z,2.50
2019-05-23T18:59:12.611Z,2.42
2019-05-23T19:01:46.023Z,2.50
2019-05-23T19:04:19.359Z,2.30
2019-05-23T19:06:52.730Z,2.72
2019-05-23T19:09:26.073Z,3.15
2019-05-23T19:11:59.500Z,3.50
2019-05-23T19:14:32.614Z,3.02
2019-05-23T19:17:07.016Z,3.17
2019-05-23T19:19:40.495Z,2.83
2019-05-23T19:22:14.248Z,2.72
2019-05-23T19:24:48.294Z,2.47
2019-05-23T19:27:21.726Z,2.72
2019-05-23T19:29:55.081Z,2.87
2019-05-23T19:32:28.368Z,2.65
2019-05-23T19:35:01.692Z,2.77
2019-05-23T19:37:35.072Z,2.40
2019-05-23T19:40:08.389Z,3.20
2019-05-23T19:42:41.606Z,2.35
2019-05-23T19:45:14.992Z,2.33
2019-05-23T19:47:48.323Z,2.20
2019-05-23T19:50:21.634Z,2.45
2019-05-23T19:52:54.991Z,1.80
2019-05-23T19:55:28.262Z,1.60
2019-05-23T19:58:01.588Z,2.02
2019-05-23T20:00:34.903Z,2.10
2019-05-23T20:03:08.258Z,1.70
2019-05-23T20:05:41.614Z,1.70
2019-05-23T20:08:14.997Z,1.75
2019-05-23T20:10:48.381Z,1.90
2019-05-23T20:13:21.726Z,1.90
2019-05-23T20:15:55.087Z,1.60
2019-05-23T20:18:29.016Z,1.50
2019-05-23T20:21:02.865Z,1.72
2019-05-23T20:23:40.109Z,1.62
2019-05-23T20:26:16.789Z,1.60
2019-05-23T20:28:54.099Z,1.35
2019-05-23T20:31:29.947Z,1.67
2019-05-23T20:34:06.752Z,1.90
2019-05-23T20:36:38.448Z,1.65
2019-05-23T20:39:11.837Z,1.55
2019-05-23T20:41:45.172Z,1.37
2019-05-23T20:44:18.478Z,1.82
2019-05-23T20:46:51.897Z,1.82
2019-05-23T20:49:27.254Z,1.52
2019-05-23T20:52:00.264Z,1.42
2019-05-23T20:54:34.077Z,1.67
2019-05-23T20:57:07.533Z,1.42
2019-05-23T20:59:42.088Z,1.57
2019-05-23T21:02:15.465Z,1.42
2019-05-23T21:04:48.783Z,1.67
2019-05-23T21:07:22.258Z,1.47
2019-05-23T21:09:55.594Z,1.75
2019-05-23T21:12:30.641Z,1.55
2019-05-23T21:15:04.758Z,1.50
2019-05-23T21:17:38.122Z,1.87
2019-05-23T21:20:11.464Z,1.80
2019-05-23T21:22:44.750Z,1.60
2019-05-23T21:25:18.069Z,1.80
2019-05-23T21:27:51.407Z,1.35
2019-05-23T21:30:24.713Z,2.00
2019-05-23T21:32:58.087Z,1.42
2019-05-23T21:35:31.659Z,1.45
2019-05-23T21:38:05.080Z,1.55
2019-05-23T21:40:40.267Z,1.65
2019-05-23T21:43:13.627Z,1.47
2019-05-23T21:45:46.950Z,2.20
2019-05-23T21:48:20.117Z,1.70
2019-05-23T21:50:53.407Z,1.70
2019-05-23T21:53:27.094Z,1.60
2019-05-23T21:56:00.399Z,1.82
2019-05-23T21:58:33.764Z,1.87
2019-05-23T22:01:07.235Z,2.05
2019-05-23T22:03:40.596Z,1.67
2019-05-23T22:06:13.924Z,1.50
2019-05-23T22:08:47.247Z,2.12
2019-05-23T22:11:20.556Z,1.60
2019-05-23T22:13:53.914Z,1.62
2019-05-23T22:16:27.232Z,1.55
2019-05-23T22:19:01.761Z,1.70
2019-05-23T22:21:36.141Z,1.80
2019-05-23T22:24:09.505Z,1.75
2019-05-23T22:26:43.952Z,1.80
2019-05-23T22:29:17.346Z,1.72
2019-05-23T22:31:50.703Z,1.60
2019-05-23T22:34:24.065Z,1.52
2019-05-23T22:36:57.368Z,1.55
2019-05-23T22:39:30.741Z,1.47
2019-05-23T22:42:04.720Z,1.65
2019-05-23T22:44:38.125Z,1.80
2019-05-23T22:47:11.427Z,1.60
2019-05-23T22:49:44.749Z,1.80
2019-05-23T22:52:18.064Z,1.65
2019-05-23T22:54:51.398Z,1.47
2019-05-23T22:57:24.705Z,1.90
2019-05-23T22:59:58.125Z,1.45
2019-05-23T23:02:31.435Z,1.90
2019-05-23T23:05:04.785Z,1.95
2019-05-23T23:07:39.272Z,1.70
2019-05-23T23:10:14.362Z,1.77
2019-05-23T23:12:47.654Z,1.85
2019-05-23T23:15:20.993Z,1.45
2019-05-23T23:17:54.313Z,1.65
2019-05-23T23:20:27.653Z,1.70
2019-05-23T23:23:00.936Z,1.40
2019-05-23T23:25:34.667Z,1.70
2019-05-23T23:28:07.994Z,1.50
2019-05-23T23:30:41.501Z,1.72
2019-05-23T23:33:14.820Z,1.40
2019-05-23T23:35:48.158Z,1.50
2019-05-23T23:38:22.526Z,1.70
2019-05-23T23:40:55.871Z,1.72
2019-05-23T23:43:29.201Z,1.77
2019-05-23T23:46:02.551Z,1.60
2019-05-23T23:48:36.915Z,1.70
2019-05-23T23:51:10.245Z,1.30
2019-05-23T23:53:43.544Z,1.70
2019-05-23T23:56:16.897Z,1.50
2019-05-23T23:58:50.192Z,1.42
